Terminal Aerodrome Forecast
Issued by NWS Louisville, KY

Home | Current Version | Previous Version | Text Only | Print | Product List | Glossary On
Versions: 1 2 3 4 5 6 7 8 9 10 11 12 13 14 15 16 17 18 19
101
FTUS43 KLMK 231726
TAFBWG
TAF
KBWG 231726Z 2318/2418 19010KT P6SM SCT020 BKN050
     FM232300 17008KT P6SM SCT030 BKN200
     FM240800 19012KT P6SM BKN025
     FM241300 19018G25KT P6SM BKN030=

USA.gov is the U.S. government's official web portal to all federal, state and local government web resources and services.